sensor_id;sensor_type;location;lat;lon;timestamp;P1;durP1;ratioP1;P2;durP2;ratioP2
75007;SDS011;63554;48.940;12.050;2022-12-10T00:02:55;3.42;;;2.47;;
75007;SDS011;63554;48.940;12.050;2022-12-10T00:06:58;3.83;;;3.38;;
75007;SDS011;63554;48.940;12.050;2022-12-10T00:11:03;3.50;;;1.92;;
75007;SDS011;63554;48.940;12.050;2022-12-10T00:15:07;3.15;;;2.95;;
75007;SDS011;63554;48.940;12.050;2022-12-10T00:19:11;4.35;;;2.53;;
75007;SDS011;63554;48.940;12.050;2022-12-10T00:23:14;4.05;;;3.13;;
75007;SDS011;63554;48.940;12.050;2022-12-10T00:27:24;2.10;;;1.80;;
75007;SDS011;63554;48.940;12.050;2022-12-10T00:31:28;5.13;;;3.85;;
75007;SDS011;63554;48.940;12.050;2022-12-10T00:35:34;2.40;;;2.10;;
75007;SDS011;63554;48.940;12.050;2022-12-10T00:39:37;7.00;;;2.70;;
75007;SDS011;63554;48.940;12.050;2022-12-10T00:43:42;4.43;;;3.25;;
75007;SDS011;63554;48.940;12.050;2022-12-10T00:47:45;2.65;;;2.10;;
75007;SDS011;63554;48.940;12.050;2022-12-10T00:51:47;3.20;;;2.42;;
75007;SDS011;63554;48.940;12.050;2022-12-10T00:55:50;3.50;;;2.90;;
75007;SDS011;63554;48.940;12.050;2022-12-10T00:59:54;3.78;;;3.33;;
75007;SDS011;63554;48.940;12.050;2022-12-10T01:03:58;1.40;;;1.10;;
75007;SDS011;63554;48.940;12.050;2022-12-10T01:08:02;6.35;;;2.75;;
75007;SDS011;63554;48.940;12.050;2022-12-10T01:12:05;1.98;;;1.85;;
75007;SDS011;63554;48.940;12.050;2022-12-10T01:16:09;7.15;;;3.80;;
75007;SDS011;63554;48.940;12.050;2022-12-10T01:20:14;5.38;;;3.35;;
75007;SDS011;63554;48.940;12.050;2022-12-10T01:24:17;173.45;;;127.57;;
75007;SDS011;63554;48.940;12.050;2022-12-10T10:03:37;245.02;;;223.35;;
75007;SDS011;63554;48.940;12.050;2022-12-10T10:07:42;221.50;;;203.55;;
75007;SDS011;63554;48.940;12.050;2022-12-10T10:11:47;177.20;;;163.02;;
75007;SDS011;63554;48.940;12.050;2022-12-10T10:15:50;152.80;;;141.15;;
75007;SDS011;63554;48.940;12.050;2022-12-10T10:19:55;135.15;;;125.28;;
75007;SDS011;63554;48.940;12.050;2022-12-10T10:23:58;119.28;;;110.38;;
75007;SDS011;63554;48.940;12.050;2022-12-10T10:28:01;108.30;;;100.15;;
75007;SDS011;63554;48.940;12.050;2022-12-10T10:32:11;103.85;;;95.97;;
75007;SDS011;63554;48.940;12.050;2022-12-10T10:36:23;97.55;;;90.63;;
75007;SDS011;63554;48.940;12.050;2022-12-10T10:40:30;92.43;;;85.32;;
75007;SDS011;63554;48.940;12.050;2022-12-10T10:44:35;81.80;;;75.78;;
75007;SDS011;63554;48.940;12.050;2022-12-10T10:48:40;70.40;;;65.18;;
75007;SDS011;63554;48.940;12.050;2022-12-10T10:52:44;66.20;;;61.33;;
75007;SDS011;63554;48.940;12.050;2022-12-10T10:56:48;61.33;;;56.65;;
75007;SDS011;63554;48.940;12.050;2022-12-10T11:00:57;58.63;;;54.20;;
75007;SDS011;63554;48.940;12.050;2022-12-10T11:05:04;63.88;;;58.85;;
75007;SDS011;63554;48.940;12.050;2022-12-10T11:09:20;61.53;;;56.85;;
75007;SDS011;63554;48.940;12.050;2022-12-10T11:13:31;54.42;;;50.08;;
75007;SDS011;63554;48.940;12.050;2022-12-10T11:17:36;45.65;;;42.20;;
75007;SDS011;63554;48.940;12.050;2022-12-10T11:21:55;41.33;;;38.20;;
75007;SDS011;63554;48.940;12.050;2022-12-10T11:26:24;39.80;;;35.95;;
75007;SDS011;63554;48.940;12.050;2022-12-10T11:30:44;27.58;;;25.70;;
75007;SDS011;63554;48.940;12.050;2022-12-10T11:34:58;22.88;;;21.02;;
75007;SDS011;63554;48.940;12.050;2022-12-10T11:39:16;27.30;;;25.30;;
75007;SDS011;63554;48.940;12.050;2022-12-10T11:48:15;23.58;;;22.00;;
75007;SDS011;63554;48.940;12.050;2022-12-10T11:52:35;20.65;;;19.05;;
75007;SDS011;63554;48.940;12.050;2022-12-10T11:56:52;10.15;;;9.20;;
75007;SDS011;63554;48.940;12.050;2022-12-10T12:01:04;4.93;;;4.15;;
75007;SDS011;63554;48.940;12.050;2022-12-10T12:05:19;10.13;;;3.85;;
75007;SDS011;63554;48.940;12.050;2022-12-10T12:09:44;5.35;;;2.67;;
75007;SDS011;63554;48.940;12.050;2022-12-10T12:14:11;4.70;;;1.55;;
75007;SDS011;63554;48.940;12.050;2022-12-10T12:18:20;6.25;;;2.22;;
75007;SDS011;63554;48.940;12.050;2022-12-10T12:22:28;4.20;;;1.65;;
75007;SDS011;63554;48.940;12.050;2022-12-10T12:26:36;3.20;;;1.88;;
75007;SDS011;63554;48.940;12.050;2022-12-10T12:30:41;5.82;;;2.80;;
75007;SDS011;63554;48.940;12.050;2022-12-10T12:34:50;3.67;;;1.42;;
75007;SDS011;63554;48.940;12.050;2022-12-10T12:39:02;2.88;;;1.13;;
75007;SDS011;63554;48.940;12.050;2022-12-10T12:43:13;4.68;;;2.35;;
75007;SDS011;63554;48.940;12.050;2022-12-10T12:47:22;3.45;;;3.03;;
75007;SDS011;63554;48.940;12.050;2022-12-10T12:51:36;4.47;;;2.83;;
75007;SDS011;63554;48.940;12.050;2022-12-10T12:55:44;2.67;;;1.10;;
75007;SDS011;63554;48.940;12.050;2022-12-10T12:59:53;11.55;;;2.63;;
75007;SDS011;63554;48.940;12.050;2022-12-10T13:04:03;1.60;;;0.85;;
75007;SDS011;63554;48.940;12.050;2022-12-10T13:12:44;4.57;;;1.88;;
75007;SDS011;63554;48.940;12.050;2022-12-10T13:16:58;4.40;;;1.60;;
75007;SDS011;63554;48.940;12.050;2022-12-10T13:21:16;2.63;;;1.00;;
75007;SDS011;63554;48.940;12.050;2022-12-10T13:30:03;6.95;;;1.90;;
75007;SDS011;63554;48.940;12.050;2022-12-10T13:34:30;3.13;;;1.63;;
75007;SDS011;63554;48.940;12.050;2022-12-10T13:38:38;2.50;;;1.52;;
75007;SDS011;63554;48.940;12.050;2022-12-10T13:42:44;2.28;;;1.30;;
75007;SDS011;63554;48.940;12.050;2022-12-10T13:47:21;3.25;;;1.35;;
75007;SDS011;63554;48.940;12.050;2022-12-10T13:51:35;5.10;;;2.25;;
75007;SDS011;63554;48.940;12.050;2022-12-10T13:55:46;3.22;;;1.65;;
75007;SDS011;63554;48.940;12.050;2022-12-10T14:00:00;3.53;;;1.55;;
75007;SDS011;63554;48.940;12.050;2022-12-10T14:04:14;2.95;;;1.65;;
75007;SDS011;63554;48.940;12.050;2022-12-10T14:08:29;7.32;;;2.30;;
75007;SDS011;63554;48.940;12.050;2022-12-10T14:12:36;3.28;;;0.93;;
75007;SDS011;63554;48.940;12.050;2022-12-10T14:16:43;3.17;;;2.50;;
75007;SDS011;63554;48.940;12.050;2022-12-10T14:20:47;3.78;;;2.10;;
75007;SDS011;63554;48.940;12.050;2022-12-10T14:24:53;3.28;;;1.73;;
75007;SDS011;63554;48.940;12.050;2022-12-10T14:33:30;3.97;;;1.83;;
75007;SDS011;63554;48.940;12.050;2022-12-10T14:37:33;7.82;;;2.63;;
75007;SDS011;63554;48.940;12.050;2022-12-10T14:41:42;3.40;;;2.03;;
75007;SDS011;63554;48.940;12.050;2022-12-10T14:45:51;4.43;;;2.08;;
75007;SDS011;63554;48.940;12.050;2022-12-10T14:50:05;2.85;;;1.00;;
75007;SDS011;63554;48.940;12.050;2022-12-10T14:58:36;6.85;;;2.92;;
75007;SDS011;63554;48.940;12.050;2022-12-10T15:02:43;3.33;;;1.88;;
75007;SDS011;63554;48.940;12.050;2022-12-10T15:06:49;2.05;;;0.82;;
75007;SDS011;63554;48.940;12.050;2022-12-10T15:10:58;5.15;;;1.88;;
75007;SDS011;63554;48.940;12.050;2022-12-10T15:15:05;2.88;;;1.55;;
75007;SDS011;63554;48.940;12.050;2022-12-10T15:19:18;2.25;;;0.90;;
75007;SDS011;63554;48.940;12.050;2022-12-10T15:23:25;4.93;;;1.75;;
75007;SDS011;63554;48.940;12.050;2022-12-10T15:27:37;4.00;;;2.25;;
75007;SDS011;63554;48.940;12.050;2022-12-10T15:31:40;3.25;;;1.55;;
75007;SDS011;63554;48.940;12.050;2022-12-10T15:35:43;3.08;;;2.08;;
75007;SDS011;63554;48.940;12.050;2022-12-10T15:39:49;5.07;;;2.13;;
75007;SDS011;63554;48.940;12.050;2022-12-10T15:43:58;5.65;;;4.78;;
75007;SDS011;63554;48.940;12.050;2022-12-10T15:52:16;4.60;;;4.07;;
75007;SDS011;63554;48.940;12.050;2022-12-10T15:56:22;5.22;;;2.10;;
75007;SDS011;63554;48.940;12.050;2022-12-10T16:00:25;2.50;;;2.25;;
75007;SDS011;63554;48.940;12.050;2022-12-10T16:04:29;5.35;;;1.55;;
75007;SDS011;63554;48.940;12.050;2022-12-10T16:08:32;3.40;;;3.10;;
75007;SDS011;63554;48.940;12.050;2022-12-10T16:12:37;3.35;;;2.22;;
75007;SDS011;63554;48.940;12.050;2022-12-10T16:16:41;3.70;;;3.40;;
75007;SDS011;63554;48.940;12.050;2022-12-10T16:20:44;3.05;;;2.53;;
75007;SDS011;63554;48.940;12.050;2022-12-10T16:24:47;4.82;;;3.22;;
75007;SDS011;63554;48.940;12.050;2022-12-10T16:28:51;6.65;;;2.22;;
75007;SDS011;63554;48.940;12.050;2022-12-10T16:32:55;2.85;;;2.17;;
75007;SDS011;63554;48.940;12.050;2022-12-10T16:36:57;4.30;;;3.17;;
75007;SDS011;63554;48.940;12.050;2022-12-10T16:41:00;2.85;;;2.40;;
75007;SDS011;63554;48.940;12.050;2022-12-10T16:45:16;7.95;;;2.45;;
75007;SDS011;63554;48.940;12.050;2022-12-10T16:49:21;3.45;;;3.13;;
75007;SDS011;63554;48.940;12.050;2022-12-10T16:53:29;2.70;;;2.38;;
75007;SDS011;63554;48.940;12.050;2022-12-10T16:57:35;2.08;;;1.50;;
75007;SDS011;63554;48.940;12.050;2022-12-10T17:01:39;4.72;;;2.40;;
75007;SDS011;63554;48.940;12.050;2022-12-10T17:05:42;4.32;;;3.95;;
75007;SDS011;63554;48.940;12.050;2022-12-10T17:09:49;2.58;;;1.73;;
75007;SDS011;63554;48.940;12.050;2022-12-10T17:13:52;3.05;;;1.45;;
75007;SDS011;63554;48.940;12.050;2022-12-10T17:17:56;3.40;;;1.88;;
75007;SDS011;63554;48.940;12.050;2022-12-10T17:21:59;2.67;;;2.17;;
75007;SDS011;63554;48.940;12.050;2022-12-10T17:26:06;2.65;;;2.30;;
75007;SDS011;63554;48.940;12.050;2022-12-10T17:30:11;6.68;;;3.53;;
75007;SDS011;63554;48.940;12.050;2022-12-10T17:34:16;4.40;;;3.55;;
75007;SDS011;63554;48.940;12.050;2022-12-10T17:38:19;4.18;;;2.47;;
75007;SDS011;63554;48.940;12.050;2022-12-10T17:42:27;6.50;;;3.47;;
75007;SDS011;63554;48.940;12.050;2022-12-10T17:46:30;3.80;;;3.13;;
75007;SDS011;63554;48.940;12.050;2022-12-10T17:50:36;2.85;;;2.20;;
75007;SDS011;63554;48.940;12.050;2022-12-10T17:54:39;3.42;;;2.22;;
75007;SDS011;63554;48.940;12.050;2022-12-10T17:58:46;0.93;;;0.93;;
75007;SDS011;63554;48.940;12.050;2022-12-10T18:02:49;4.43;;;2.40;;
75007;SDS011;63554;48.940;12.050;2022-12-10T18:06:54;2.60;;;2.25;;
75007;SDS011;63554;48.940;12.050;2022-12-10T18:10:56;5.05;;;3.15;;
75007;SDS011;63554;48.940;12.050;2022-12-10T18:14:59;5.05;;;2.78;;
75007;SDS011;63554;48.940;12.050;2022-12-10T18:19:03;2.33;;;2.17;;
75007;SDS011;63554;48.940;12.050;2022-12-10T18:23:11;3.10;;;2.88;;
75007;SDS011;63554;48.940;12.050;2022-12-10T18:27:17;2.97;;;2.78;;
75007;SDS011;63554;48.940;12.050;2022-12-10T18:31:21;5.68;;;2.50;;
75007;SDS011;63554;48.940;12.050;2022-12-10T18:35:25;13.70;;;5.40;;
75007;SDS011;63554;48.940;12.050;2022-12-10T18:39:35;11.32;;;6.22;;
75007;SDS011;63554;48.940;12.050;2022-12-10T18:43:37;2.80;;;2.60;;
75007;SDS011;63554;48.940;12.050;2022-12-10T18:47:40;1.30;;;1.20;;
75007;SDS011;63554;48.940;12.050;2022-12-10T18:51:43;4.22;;;2.83;;
75007;SDS011;63554;48.940;12.050;2022-12-10T18:55:47;6.43;;;3.40;;
75007;SDS011;63554;48.940;12.050;2022-12-10T18:59:57;8.10;;;1.65;;
75007;SDS011;63554;48.940;12.050;2022-12-10T19:04:00;2.25;;;2.05;;
75007;SDS011;63554;48.940;12.050;2022-12-10T19:08:03;1.52;;;1.42;;
75007;SDS011;63554;48.940;12.050;2022-12-10T19:12:07;1.90;;;1.75;;
75007;SDS011;63554;48.940;12.050;2022-12-10T19:16:18;2.63;;;1.90;;
75007;SDS011;63554;48.940;12.050;2022-12-10T19:20:23;1.95;;;1.75;;
75007;SDS011;63554;48.940;12.050;2022-12-10T19:24:27;2.78;;;1.83;;
75007;SDS011;63554;48.940;12.050;2022-12-10T19:28:35;3.35;;;3.05;;
75007;SDS011;63554;48.940;12.050;2022-12-10T19:32:37;0.98;;;0.90;;
75007;SDS011;63554;48.940;12.050;2022-12-10T19:36:41;2.08;;;1.98;;
75007;SDS011;63554;48.940;12.050;2022-12-10T19:40:44;1.08;;;1.05;;
75007;SDS011;63554;48.940;12.050;2022-12-10T19:44:48;1.48;;;1.40;;
75007;SDS011;63554;48.940;12.050;2022-12-10T19:48:51;3.58;;;2.97;;
75007;SDS011;63554;48.940;12.050;2022-12-10T19:52:54;0.70;;;0.70;;
75007;SDS011;63554;48.940;12.050;2022-12-10T19:56:57;1.13;;;1.02;;
75007;SDS011;63554;48.940;12.050;2022-12-10T20:01:01;5.38;;;2.20;;
75007;SDS011;63554;48.940;12.050;2022-12-10T20:05:08;1.65;;;1.52;;
75007;SDS011;63554;48.940;12.050;2022-12-10T20:09:18;0.63;;;0.63;;
75007;SDS011;63554;48.940;12.050;2022-12-10T20:13:23;0.43;;;0.43;;
75007;SDS011;63554;48.940;12.050;2022-12-10T20:17:27;0.47;;;0.47;;
75007;SDS011;63554;48.940;12.050;2022-12-10T20:21:33;0.75;;;0.75;;
75007;SDS011;63554;48.940;12.050;2022-12-10T20:25:36;0.30;;;0.30;;
75007;SDS011;63554;48.940;12.050;2022-12-10T20:29:39;1.08;;;0.98;;
75007;SDS011;63554;48.940;12.050;2022-12-10T20:33:44;1.00;;;0.77;;
75007;SDS011;63554;48.940;12.050;2022-12-10T20:37:48;1.33;;;1.30;;
75007;SDS011;63554;48.940;12.050;2022-12-10T20:41:58;0.57;;;0.57;;
75007;SDS011;63554;48.940;12.050;2022-12-10T20:46:01;0.75;;;0.75;;
75007;SDS011;63554;48.940;12.050;2022-12-10T20:50:06;0.80;;;0.80;;
75007;SDS011;63554;48.940;12.050;2022-12-10T20:54:17;0.00;;;0.00;;
75007;SDS011;63554;48.940;12.050;2022-12-10T20:58:20;1.73;;;1.63;;
75007;SDS011;63554;48.940;12.050;2022-12-10T21:02:23;0.10;;;0.10;;
75007;SDS011;63554;48.940;12.050;2022-12-10T21:06:28;0.17;;;0.17;;
75007;SDS011;63554;48.940;12.050;2022-12-10T21:10:37;5.82;;;1.27;;
75007;SDS011;63554;48.940;12.050;2022-12-10T21:14:56;0.22;;;0.22;;
75007;SDS011;63554;48.940;12.050;2022-12-10T21:19:08;0.52;;;0.52;;
75007;SDS011;63554;48.940;12.050;2022-12-10T21:23:15;1.30;;;0.68;;
75007;SDS011;63554;48.940;12.050;2022-12-10T21:27:19;0.60;;;0.57;;
75007;SDS011;63554;48.940;12.050;2022-12-10T21:31:23;1.20;;;1.13;;
75007;SDS011;63554;48.940;12.050;2022-12-10T21:35:27;1.80;;;1.35;;
75007;SDS011;63554;48.940;12.050;2022-12-10T21:39:31;1.48;;;1.13;;
75007;SDS011;63554;48.940;12.050;2022-12-10T21:43:33;1.88;;;0.80;;
75007;SDS011;63554;48.940;12.050;2022-12-10T21:47:36;2.20;;;1.23;;
75007;SDS011;63554;48.940;12.050;2022-12-10T21:51:39;2.22;;;1.23;;
75007;SDS011;63554;48.940;12.050;2022-12-10T21:55:43;0.85;;;0.85;;
75007;SDS011;63554;48.940;12.050;2022-12-10T21:59:45;1.52;;;1.00;;
75007;SDS011;63554;48.940;12.050;2022-12-10T22:03:48;0.52;;;0.52;;
75007;SDS011;63554;48.940;12.050;2022-12-10T22:07:51;0.35;;;0.35;;
75007;SDS011;63554;48.940;12.050;2022-12-10T22:11:55;2.60;;;1.55;;
75007;SDS011;63554;48.940;12.050;2022-12-10T22:15:59;4.80;;;1.75;;
75007;SDS011;63554;48.940;12.050;2022-12-10T22:20:02;1.20;;;1.10;;
75007;SDS011;63554;48.940;12.050;2022-12-10T22:24:06;1.55;;;1.50;;
75007;SDS011;63554;48.940;12.050;2022-12-10T22:28:11;1.80;;;1.27;;
75007;SDS011;63554;48.940;12.050;2022-12-10T22:32:16;1.55;;;1.45;;
75007;SDS011;63554;48.940;12.050;2022-12-10T22:36:19;0.35;;;0.35;;
75007;SDS011;63554;48.940;12.050;2022-12-10T22:40:22;0.25;;;0.25;;
75007;SDS011;63554;48.940;12.050;2022-12-10T22:44:26;0.98;;;0.85;;
75007;SDS011;63554;48.940;12.050;2022-12-10T22:48:28;1.52;;;0.85;;
75007;SDS011;63554;48.940;12.050;2022-12-10T22:52:31;0.70;;;0.70;;
75007;SDS011;63554;48.940;12.050;2022-12-10T22:56:34;1.33;;;1.25;;
75007;SDS011;63554;48.940;12.050;2022-12-10T23:00:38;0.80;;;0.80;;
75007;SDS011;63554;48.940;12.050;2022-12-10T23:04:42;1.10;;;0.40;;
75007;SDS011;63554;48.940;12.050;2022-12-10T23:08:45;0.73;;;0.73;;
75007;SDS011;63554;48.940;12.050;2022-12-10T23:12:48;1.00;;;0.57;;
75007;SDS011;63554;48.940;12.050;2022-12-10T23:17:12;1.58;;;0.80;;
75007;SDS011;63554;48.940;12.050;2022-12-10T23:21:15;2.15;;;1.85;;
75007;SDS011;63554;48.940;12.050;2022-12-10T23:25:20;0.95;;;0.95;;
75007;SDS011;63554;48.940;12.050;2022-12-10T23:29:23;0.73;;;0.60;;
75007;SDS011;63554;48.940;12.050;2022-12-10T23:33:27;0.80;;;0.80;;
75007;SDS011;63554;48.940;12.050;2022-12-10T23:37:32;6.63;;;1.00;;
75007;SDS011;63554;48.940;12.050;2022-12-10T23:41:35;2.33;;;2.22;;
75007;SDS011;63554;48.940;12.050;2022-12-10T23:45:38;0.70;;;0.70;;
75007;SDS011;63554;48.940;12.050;2022-12-10T23:49:44;0.98;;;0.82;;
75007;SDS011;63554;48.940;12.050;2022-12-10T23:53:47;2.17;;;1.48;;
75007;SDS011;63554;48.940;12.050;2022-12-10T23:57:51;2.28;;;1.65;;
